Time;durP1;ratioP1;P1;durP2;ratioP2;P2;SDS_P1;SDS_P2;PMS_P1;PMS_P2;Temp;Humidity;BMP_temperature;BMP_pressure;BME280_temperature;BME280_humidity;BME280_pressure;Samples;Min_cycle;Max_cycle;Signal;HPM_P1;HPM_P2
2021/05/16 00:00:36;;;;;;;30.63;4.57;;;11.40;99.90;;;;;;5011990;28;20168;-77
2021/05/16 00:03:02;;;;;;;15.98;3.00;;;11.30;99.90;;;;;;5011287;28;20227;-83
2021/05/16 00:05:30;;;;;;;14.75;3.50;;;11.20;99.90;;;;;;5012793;28;20169;-78
2021/05/16 00:07:57;;;;;;;14.60;3.25;;;11.30;99.90;;;;;;5012447;28;20188;-78
2021/05/16 00:10:24;;;;;;;21.42;3.80;;;11.40;99.90;;;;;;5012561;28;20687;-80
2021/05/16 00:12:51;;;;;;;24.80;3.40;;;11.40;99.90;;;;;;5012618;28;20225;-77
2021/05/16 00:15:19;;;;;;;25.65;4.00;;;11.40;99.90;;;;;;5012761;28;20168;-79
2021/05/16 00:17:44;;;;;;;21.55;2.60;;;11.40;99.90;;;;;;5012577;28;20267;-78
2021/05/16 00:20:14;;;;;;;25.85;4.72;;;11.20;99.90;;;;;;5013084;28;20246;-78
2021/05/16 00:22:40;;;;;;;17.23;3.38;;;11.20;99.90;;;;;;5012552;28;20243;-78
2021/05/16 00:25:08;;;;;;;17.33;3.75;;;11.20;99.90;;;;;;5011423;28;20172;-78
2021/05/16 00:27:35;;;;;;;15.05;2.95;;;11.10;99.90;;;;;;5013276;28;20191;-78
2021/05/16 00:30:03;;;;;;;9.05;2.42;;;11.10;99.90;;;;;;5019800;28;20160;-78
2021/05/16 00:32:28;;;;;;;21.15;4.30;;;11.30;99.90;;;;;;5020285;28;20169;-78
2021/05/16 00:34:54;;;;;;;22.90;2.90;;;11.20;99.90;;;;;;5017135;28;20196;-78
2021/05/16 00:37:20;;;;;;;14.85;2.90;;;11.10;99.90;;;;;;5020533;28;20203;-78
2021/05/16 00:39:45;;;;;;;16.98;2.47;;;11.20;99.90;;;;;;5031846;28;20185;-79
2021/05/16 00:42:11;;;;;;;15.05;2.75;;;11.30;99.90;;;;;;5033700;28;20188;-77
2021/05/16 00:44:36;;;;;;;15.18;3.10;;;11.20;99.90;;;;;;5036158;28;20169;-79
2021/05/16 00:47:02;;;;;;;12.80;2.85;;;11.10;99.90;;;;;;5032738;28;20176;-78
2021/05/16 00:49:27;;;;;;;14.77;2.85;;;11.10;99.90;;;;;;5019076;28;20172;-77
2021/05/16 00:51:53;;;;;;;24.42;3.30;;;11.20;99.90;;;;;;5033605;28;20172;-78
2021/05/16 00:54:18;;;;;;;9.27;2.92;;;11.30;99.90;;;;;;5021484;28;20700;-77
2021/05/16 00:56:44;;;;;;;15.05;2.70;;;11.30;99.90;;;;;;5015741;28;20279;-77
2021/05/16 00:59:10;;;;;;;15.88;2.63;;;11.40;99.90;;;;;;5014779;28;20554;-77
2021/05/16 01:01:35;;;;;;;15.02;2.67;;;11.40;99.90;;;;;;5015882;28;20251;-78
2021/05/16 01:04:01;;;;;;;15.80;3.72;;;11.40;99.90;;;;;;5015697;28;20172;-78
2021/05/16 01:06:27;;;;;;;17.90;2.75;;;11.30;99.90;;;;;;5015478;28;20641;-77
2021/05/16 01:08:57;;;;;;;12.55;2.55;;;11.20;99.90;;;;;;5015606;28;20204;-78
2021/05/16 01:11:27;;;;;;;18.52;2.70;;;11.20;99.90;;;;;;5015528;28;20171;-78
2021/05/16 01:13:54;;;;;;;10.52;2.20;;;11.10;99.90;;;;;;5015628;28;20175;-78
2021/05/16 01:16:22;;;;;;;13.90;2.40;;;11.00;99.90;;;;;;5015573;28;20161;-77
2021/05/16 01:18:48;;;;;;;23.15;2.70;;;11.00;99.90;;;;;;5015488;28;20225;-77
2021/05/16 01:21:16;;;;;;;17.65;2.63;;;11.10;99.90;;;;;;5015736;28;20289;-78
2021/05/16 01:23:48;;;;;;;15.23;2.38;;;11.00;99.90;;;;;;5015482;28;20220;-77
2021/05/16 01:26:14;;;;;;;23.63;2.63;;;11.10;99.90;;;;;;5015372;28;20171;-78
2021/05/16 01:28:44;;;;;;;15.10;3.95;;;11.00;99.90;;;;;;5015231;28;20196;-77
2021/05/16 01:31:11;;;;;;;19.73;3.08;;;11.10;99.90;;;;;;5015483;28;20219;-78
2021/05/16 01:33:37;;;;;;;19.92;3.25;;;11.10;99.90;;;;;;5014210;28;20178;-77
2021/05/16 01:36:04;;;;;;;14.27;3.28;;;11.10;99.90;;;;;;5014711;28;20164;-78
2021/05/16 01:38:29;;;;;;;17.77;3.13;;;11.00;99.90;;;;;;5013500;28;20223;-78
2021/05/16 01:40:55;;;;;;;9.65;2.90;;;10.90;99.90;;;;;;5014875;28;20164;-77
2021/05/16 01:43:21;;;;;;;21.05;2.90;;;11.00;99.90;;;;;;5014787;28;20291;-77
2021/05/16 01:45:46;;;;;;;11.77;2.30;;;11.00;99.90;;;;;;5014101;28;20177;-78
2021/05/16 01:48:12;;;;;;;19.25;2.38;;;11.00;99.90;;;;;;5014870;28;20192;-78
2021/05/16 01:50:39;;;;;;;13.70;2.72;;;11.20;99.90;;;;;;5015035;28;20157;-77
2021/05/16 01:53:07;;;;;;;19.70;2.60;;;11.20;99.90;;;;;;5015036;28;20187;-78
2021/05/16 01:55:34;;;;;;;14.57;2.75;;;11.30;99.90;;;;;;5015003;28;20215;-77
2021/05/16 01:58:00;;;;;;;15.73;2.88;;;11.20;99.90;;;;;;5014603;28;20219;-77
2021/05/16 02:00:37;;;;;;;15.57;2.40;;;11.20;99.90;;;;;;5014837;28;20176;-78
2021/05/16 02:03:03;;;;;;;20.25;3.20;;;11.10;99.90;;;;;;5014560;28;20569;-78
2021/05/16 02:05:29;;;;;;;17.67;3.53;;;11.00;99.90;;;;;;5014680;28;20178;-78
2021/05/16 02:07:56;;;;;;;19.55;3.50;;;11.10;99.90;;;;;;5013178;28;20275;-78
2021/05/16 02:10:23;;;;;;;18.00;3.17;;;11.00;99.90;;;;;;5014534;28;20172;-78
2021/05/16 02:12:49;;;;;;;25.40;3.05;;;11.00;99.90;;;;;;5014088;28;20193;-77
2021/05/16 02:15:15;;;;;;;18.35;2.78;;;10.90;99.90;;;;;;5014416;28;20211;-77
2021/05/16 02:17:42;;;;;;;19.50;2.92;;;11.00;99.90;;;;;;5014416;28;20180;-77
2021/05/16 02:20:09;;;;;;;19.67;3.40;;;10.90;99.90;;;;;;5014659;28;20172;-77
2021/05/16 02:22:35;;;;;;;12.77;2.55;;;10.90;99.90;;;;;;5014176;28;20208;-77
2021/05/16 02:25:01;;;;;;;5.82;2.67;;;10.70;99.90;;;;;;5014481;28;20160;-77
2021/05/16 02:27:26;;;;;;;7.55;2.17;;;10.70;99.90;;;;;;5014089;28;20207;-78
2021/05/16 02:29:52;;;;;;;14.15;2.50;;;10.90;99.90;;;;;;5014350;28;20169;-77
2021/05/16 02:32:18;;;;;;;11.02;2.17;;;10.90;99.90;;;;;;5014337;28;20184;-78
2021/05/16 02:34:44;;;;;;;7.50;2.00;;;10.80;99.90;;;;;;5014151;28;20207;-77
2021/05/16 02:37:09;;;;;;;7.68;2.22;;;10.70;99.90;;;;;;5014292;28;20184;-77
2021/05/16 02:39:35;;;;;;;13.38;2.80;;;10.60;99.90;;;;;;5014108;28;20263;-77
2021/05/16 02:42:00;;;;;;;13.10;3.75;;;10.70;99.90;;;;;;5014230;28;20200;-77
2021/05/16 02:44:28;;;;;;;10.43;2.30;;;10.80;99.90;;;;;;5014272;28;20247;-78
2021/05/16 02:46:54;;;;;;;12.50;3.15;;;10.80;99.90;;;;;;5014359;28;20156;-78
2021/05/16 02:49:20;;;;;;;13.75;3.47;;;10.70;99.90;;;;;;5013567;28;20695;-77
2021/05/16 02:51:45;;;;;;;11.43;2.85;;;10.70;99.90;;;;;;5014471;28;20169;-78
2021/05/16 02:54:11;;;;;;;14.02;2.92;;;10.70;99.90;;;;;;5013788;28;20180;-78
2021/05/16 02:56:36;;;;;;;13.32;2.28;;;10.70;99.90;;;;;;5013888;28;20191;-77
2021/05/16 02:59:02;;;;;;;10.60;2.88;;;10.70;99.90;;;;;;5013331;28;20204;-80
2021/05/16 03:01:28;;;;;;;8.43;3.55;;;10.60;99.90;;;;;;5013678;28;20161;-78
2021/05/16 03:03:54;;;;;;;18.52;2.70;;;10.60;99.90;;;;;;5013732;28;20249;-78
2021/05/16 03:06:19;;;;;;;10.85;2.78;;;10.60;99.90;;;;;;5013430;28;20630;-78
2021/05/16 03:08:45;;;;;;;15.15;3.10;;;10.50;99.90;;;;;;5013188;28;20189;-78
2021/05/16 03:11:12;;;;;;;9.35;2.40;;;10.40;99.90;;;;;;5013481;28;20219;-78
2021/05/16 03:13:38;;;;;;;4.95;2.53;;;10.50;99.90;;;;;;5013203;28;20263;-77
2021/05/16 03:16:03;;;;;;;15.75;2.45;;;10.40;99.90;;;;;;5013246;28;20173;-78
2021/05/16 03:18:29;;;;;;;9.45;2.72;;;10.50;99.90;;;;;;5012825;28;20276;-79
2021/05/16 03:20:54;;;;;;;6.90;2.83;;;10.40;99.90;;;;;;5012315;28;20264;-78
2021/05/16 03:23:20;;;;;;;10.43;2.65;;;10.50;99.90;;;;;;5013223;28;20256;-83
2021/05/16 03:25:46;;;;;;;8.68;2.63;;;10.50;99.90;;;;;;5013667;28;20161;-78
2021/05/16 03:28:11;;;;;;;11.10;2.50;;;10.40;99.90;;;;;;5013256;28;20194;-78
2021/05/16 03:30:37;;;;;;;9.63;2.38;;;10.40;99.90;;;;;;5012305;28;20715;-77
2021/05/16 03:33:03;;;;;;;12.85;3.42;;;10.30;99.90;;;;;;5013217;28;20909;-78
2021/05/16 03:35:29;;;;;;;10.30;3.10;;;10.40;99.90;;;;;;5013301;28;20164;-77
2021/05/16 03:37:54;;;;;;;7.95;2.00;;;10.20;99.90;;;;;;5013007;28;20196;-78
2021/05/16 03:40:20;;;;;;;9.68;2.65;;;10.10;99.90;;;;;;5011767;28;20184;-78
2021/05/16 03:42:46;;;;;;;7.20;2.65;;;10.20;99.90;;;;;;5012848;28;20841;-77
2021/05/16 03:45:12;;;;;;;13.70;3.17;;;10.30;99.90;;;;;;5013544;28;20174;-78
2021/05/16 03:47:39;;;;;;;13.73;2.83;;;10.30;99.90;;;;;;5012966;28;20188;-77
2021/05/16 03:50:11;;;;;;;4.90;2.17;;;10.40;99.90;;;;;;5013203;28;20173;-78
2021/05/16 03:52:39;;;;;;;15.60;2.55;;;10.50;99.90;;;;;;5012815;28;20533;-78
2021/05/16 03:55:06;;;;;;;12.88;3.00;;;10.50;99.90;;;;;;5012847;28;20176;-78
2021/05/16 03:57:32;;;;;;;15.02;3.13;;;10.50;99.90;;;;;;5013859;28;20241;-78
2021/05/16 03:59:57;;;;;;;7.95;3.05;;;10.50;99.90;;;;;;5013492;28;20593;-79
2021/05/16 04:02:23;;;;;;;8.60;2.88;;;10.30;99.90;;;;;;5012805;28;20212;-78
2021/05/16 04:04:49;;;;;;;12.15;2.47;;;10.40;99.90;;;;;;5013389;28;20168;-81
2021/05/16 04:07:14;;;;;;;3.13;2.22;;;10.50;99.90;;;;;;5011536;28;20599;-78
2021/05/16 04:09:40;;;;;;;20.08;2.50;;;10.40;99.90;;;;;;5011038;28;20192;-78
2021/05/16 04:12:06;;;;;;;4.90;2.67;;;10.40;99.90;;;;;;5012651;28;20169;-78
2021/05/16 04:14:31;;;;;;;9.55;2.53;;;10.50;99.90;;;;;;5012367;28;20242;-79
2021/05/16 04:16:57;;;;;;;8.30;2.78;;;10.60;99.90;;;;;;5012557;28;20183;-78
2021/05/16 04:19:23;;;;;;;8.50;2.25;;;10.70;99.90;;;;;;5012684;28;20180;-79
2021/05/16 04:21:48;;;;;;;7.32;2.25;;;10.80;99.90;;;;;;5012420;28;20660;-79
2021/05/16 04:24:14;;;;;;;11.13;2.67;;;10.70;99.90;;;;;;5012292;28;20184;-79
2021/05/16 04:26:40;;;;;;;5.50;2.15;;;10.70;99.90;;;;;;5012521;28;20527;-79
2021/05/16 04:29:06;;;;;;;12.13;3.15;;;10.70;99.90;;;;;;5012464;28;20188;-78
2021/05/16 04:31:32;;;;;;;9.75;2.83;;;10.80;99.90;;;;;;5014791;28;20173;-78
2021/05/16 04:33:57;;;;;;;6.90;2.33;;;10.90;99.90;;;;;;5016294;28;20195;-79
2021/05/16 04:36:23;;;;;;;8.20;2.38;;;10.90;99.90;;;;;;5016144;28;20688;-79
2021/05/16 04:38:49;;;;;;;9.75;2.65;;;11.00;99.90;;;;;;5016054;28;20199;-79
2021/05/16 04:41:15;;;;;;;12.85;2.33;;;10.90;99.90;;;;;;5016342;28;20168;-79
2021/05/16 04:43:41;;;;;;;5.85;2.22;;;11.00;99.90;;;;;;5015940;28;20235;-79
2021/05/16 04:46:08;;;;;;;6.15;2.10;;;11.10;99.90;;;;;;5016285;28;20215;-79
2021/05/16 04:48:33;;;;;;;15.85;3.15;;;11.20;99.90;;;;;;5016196;28;20195;-79
2021/05/16 04:50:59;;;;;;;9.65;2.60;;;11.10;99.90;;;;;;5015984;28;20157;-78
2021/05/16 04:53:28;;;;;;;8.70;2.80;;;11.00;99.90;;;;;;5015702;28;20251;-79
2021/05/16 04:55:54;;;;;;;11.68;2.35;;;11.00;99.90;;;;;;5016240;28;20157;-79
2021/05/16 04:58:19;;;;;;;12.57;2.47;;;11.20;99.90;;;;;;5015346;28;20762;-78
2021/05/16 05:00:45;;;;;;;5.28;2.22;;;11.30;99.90;;;;;;5016347;28;20160;-79
2021/05/16 05:03:10;;;;;;;11.20;2.40;;;11.30;99.90;;;;;;5016189;28;20680;-79
2021/05/16 05:05:36;;;;;;;4.68;2.20;;;11.30;99.90;;;;;;5016312;28;20219;-79
2021/05/16 05:08:02;;;;;;;9.70;2.85;;;11.50;99.90;;;;;;5016056;28;20187;-79
2021/05/16 05:10:27;;;;;;;9.43;2.15;;;11.50;99.90;;;;;;5016144;28;20315;-79
2021/05/16 05:12:53;;;;;;;12.93;2.55;;;11.60;99.90;;;;;;5016317;28;20169;-78
2021/05/16 05:15:18;;;;;;;13.23;3.45;;;11.50;99.90;;;;;;5015997;28;20168;-78
2021/05/16 05:17:44;;;;;;;7.60;2.60;;;11.70;99.90;;;;;;5015707;28;20203;-77
2021/05/16 05:20:10;;;;;;;7.20;1.92;;;11.90;99.90;;;;;;5016006;28;20239;-79
2021/05/16 05:22:37;;;;;;;10.55;2.88;;;11.90;99.90;;;;;;5014351;28;20212;-78
2021/05/16 05:25:03;;;;;;;8.50;2.22;;;11.90;99.90;;;;;;5015901;28;20164;-79
2021/05/16 05:27:29;;;;;;;5.32;2.20;;;12.10;99.90;;;;;;5015154;28;20521;-78
2021/05/16 05:29:54;;;;;;;10.07;2.53;;;12.10;99.90;;;;;;5015697;28;20168;-78
2021/05/16 05:32:20;;;;;;;6.03;1.80;;;12.10;99.90;;;;;;5015336;28;20603;-78
2021/05/16 05:34:46;;;;;;;8.90;1.90;;;12.20;99.90;;;;;;5016934;28;20169;-80
2021/05/16 05:37:11;;;;;;;9.13;2.45;;;12.30;99.90;;;;;;5015801;28;20775;-78
2021/05/16 05:39:37;;;;;;;6.32;1.85;;;12.40;99.90;;;;;;5015689;28;20573;-78
2021/05/16 05:42:03;;;;;;;10.27;2.65;;;12.50;99.90;;;;;;5015270;28;20211;-78
2021/05/16 05:44:28;;;;;;;6.00;1.58;;;12.80;99.90;;;;;;5015190;28;20172;-78
2021/05/16 05:46:54;;;;;;;5.57;1.60;;;13.00;99.90;;;;;;5015102;28;20173;-78
2021/05/16 05:49:19;;;;;;;5.75;2.40;;;12.80;99.90;;;;;;5015390;28;20172;-78
2021/05/16 05:51:45;;;;;;;10.32;2.08;;;12.90;99.90;;;;;;5014587;28;20652;-80
2021/05/16 05:54:11;;;;;;;10.35;2.08;;;13.00;99.90;;;;;;5014911;28;20165;-79
2021/05/16 05:56:36;;;;;;;8.65;2.60;;;13.10;99.90;;;;;;5015090;28;20732;-79
2021/05/16 05:59:03;;;;;;;7.28;2.70;;;13.20;99.90;;;;;;5013505;28;20192;-79
2021/05/16 06:01:29;;;;;;;7.72;2.30;;;13.50;99.90;;;;;;5014733;28;20169;-80
2021/05/16 06:03:54;;;;;;;7.80;2.42;;;13.60;99.90;;;;;;5014663;28;20544;-79
2021/05/16 06:06:20;;;;;;;12.43;2.58;;;13.60;99.90;;;;;;5014747;28;20173;-78
2021/05/16 06:08:45;;;;;;;10.48;2.65;;;13.80;99.90;;;;;;5013246;28;20196;-79
2021/05/16 06:11:11;;;;;;;13.73;3.03;;;13.90;99.90;;;;;;5014838;28;20196;-79
2021/05/16 06:13:37;;;;;;;11.30;2.38;;;13.80;99.90;;;;;;5014481;28;20250;-78
2021/05/16 06:16:02;;;;;;;8.00;2.75;;;13.70;99.90;;;;;;5014591;28;20211;-78
2021/05/16 06:18:28;;;;;;;17.80;2.00;;;13.70;99.90;;;;;;5014024;28;20219;-79
2021/05/16 06:20:54;;;;;;;4.72;2.10;;;13.50;99.90;;;;;;5012521;28;20208;-79
2021/05/16 06:23:20;;;;;;;10.40;2.70;;;13.50;99.90;;;;;;5012619;28;20216;-79
2021/05/16 06:25:47;;;;;;;9.25;2.60;;;13.40;99.90;;;;;;5014036;28;20164;-80
2021/05/16 06:28:13;;;;;;;8.13;1.85;;;13.50;99.90;;;;;;5014190;28;20269;-80
2021/05/16 06:30:38;;;;;;;11.38;1.88;;;13.60;99.90;;;;;;5012496;28;20616;-82
2021/05/16 06:33:04;;;;;;;11.95;2.28;;;13.80;99.90;;;;;;5012604;28;20179;-81
2021/05/16 06:35:30;;;;;;;9.25;2.60;;;13.70;99.90;;;;;;5013684;28;20299;-82
2021/05/16 06:37:55;;;;;;;4.35;2.28;;;13.40;99.90;;;;;;5013508;28;20223;-80
2021/05/16 06:40:21;;;;;;;12.35;2.92;;;13.40;99.90;;;;;;5013517;28;20160;-81
2021/05/16 06:42:47;;;;;;;8.70;2.55;;;13.60;99.90;;;;;;5013636;28;20619;-82
2021/05/16 06:45:13;;;;;;;10.20;2.42;;;14.00;99.90;;;;;;5014057;28;20242;-82
2021/05/16 06:47:39;;;;;;;6.40;2.78;;;14.20;99.90;;;;;;5012919;28;20227;-80
2021/05/16 06:50:06;;;;;;;9.65;2.45;;;14.30;99.90;;;;;;5012554;28;20172;-80
2021/05/16 06:52:32;;;;;;;8.15;1.95;;;14.50;99.90;;;;;;5013442;28;20168;-79
2021/05/16 06:54:57;;;;;;;9.40;2.28;;;14.70;99.90;;;;;;5012782;28;20679;-80
2021/05/16 06:57:23;;;;;;;4.78;1.80;;;15.00;99.90;;;;;;5013386;28;20275;-79
2021/05/16 06:59:48;;;;;;;11.82;2.33;;;15.00;99.90;;;;;;5013283;28;20172;-79
2021/05/16 07:02:14;;;;;;;10.18;2.28;;;14.80;99.90;;;;;;5013506;28;20215;-80
2021/05/16 07:04:42;;;;;;;8.35;2.00;;;14.80;99.90;;;;;;5014251;28;20179;-81
2021/05/16 07:07:08;;;;;;;12.60;2.60;;;14.90;99.90;;;;;;5012210;28;20730;-78
2021/05/16 07:09:33;;;;;;;12.80;2.35;;;14.90;99.90;;;;;;5013726;28;20176;-79
2021/05/16 07:11:59;;;;;;;11.15;2.40;;;15.10;99.90;;;;;;5014378;28;20523;-83
2021/05/16 07:14:25;;;;;;;7.65;2.28;;;15.80;99.90;;;;;;5013239;28;20267;-83
2021/05/16 07:16:51;;;;;;;10.00;2.35;;;16.50;99.90;;;;;;5014265;28;20724;-79
2021/05/16 07:19:17;;;;;;;12.05;2.47;;;16.90;99.90;;;;;;5013805;28;20169;-78
2021/05/16 07:21:43;;;;;;;9.80;2.38;;;17.10;99.90;;;;;;5012969;28;20191;-78
2021/05/16 07:24:08;;;;;;;21.83;2.70;;;17.60;99.90;;;;;;5013034;28;20215;-78
2021/05/16 07:26:34;;;;;;;5.40;2.20;;;17.90;99.90;;;;;;5013055;28;20235;-78
2021/05/16 07:29:00;;;;;;;6.72;2.05;;;18.40;99.90;;;;;;5011354;28;20287;-79
2021/05/16 07:31:25;;;;;;;7.93;2.05;;;18.80;99.90;;;;;;5010501;28;20182;-80
2021/05/16 07:33:51;;;;;;;3.72;1.60;;;19.60;99.90;;;;;;5012993;28;20251;-79
2021/05/16 07:36:17;;;;;;;11.43;2.85;;;19.30;99.90;;;;;;5013439;28;20161;-80
2021/05/16 07:38:45;;;;;;;10.60;1.92;;;18.40;99.90;;;;;;5011830;28;20215;-79
2021/05/16 07:41:11;;;;;;;12.40;2.67;;;18.20;99.90;;;;;;5013097;28;20164;-79
2021/05/16 07:43:36;;;;;;;11.95;2.55;;;17.40;99.90;;;;;;5012668;28;20213;-81
2021/05/16 07:46:04;;;;;;;9.52;2.80;;;17.00;99.90;;;;;;5012176;28;20180;-81
2021/05/16 07:48:30;;;;;;;7.65;2.20;;;17.00;99.90;;;;;;5013430;28;20271;-82
2021/05/16 07:51:23;;;;;;;9.30;2.53;;;16.90;99.90;;;;;;5023520;28;20207;-92
2021/05/16 07:56:27;;;;;;;9.32;2.97;;;16.60;99.90;;;;;;5100233;23;20731;-84
2021/05/16 07:58:53;;;;;;;13.13;2.65;;;16.30;99.90;;;;;;4995337;28;20187;-84
2021/05/16 08:01:18;;;;;;;9.75;1.90;;;16.20;99.90;;;;;;5009868;28;20697;-87
2021/05/16 08:03:46;;;;;;;9.48;2.35;;;16.30;99.90;;;;;;4993668;28;20304;-85
2021/05/16 08:06:12;;;;;;;10.15;2.30;;;16.40;99.90;;;;;;4993911;28;20157;-81
2021/05/16 08:08:37;;;;;;;10.93;2.58;;;16.50;99.90;;;;;;5008188;28;20263;-79
2021/05/16 08:11:03;;;;;;;12.82;2.45;;;16.70;99.90;;;;;;4993208;28;20165;-80
2021/05/16 08:13:29;;;;;;;8.63;2.00;;;16.80;99.90;;;;;;4992530;28;20696;-81
2021/05/16 08:15:54;;;;;;;7.68;2.28;;;16.90;99.90;;;;;;4992152;28;20633;-79
2021/05/16 08:18:20;;;;;;;13.73;3.13;;;17.10;99.90;;;;;;4992403;28;20553;-80
2021/05/16 08:20:45;;;;;;;10.77;2.10;;;17.10;99.90;;;;;;4993546;28;20184;-79
2021/05/16 08:23:11;;;;;;;6.75;1.98;;;17.10;99.90;;;;;;4993438;28;20213;-79
2021/05/16 08:25:39;;;;;;;8.15;2.15;;;16.90;99.90;;;;;;4994049;28;20195;-77
2021/05/16 08:28:05;;;;;;;11.32;2.58;;;17.00;99.90;;;;;;4993815;28;20292;-78
2021/05/16 08:30:31;;;;;;;9.82;3.08;;;16.80;99.90;;;;;;4996061;28;20176;-79
2021/05/16 08:32:56;;;;;;;18.30;3.15;;;16.70;99.90;;;;;;4994322;28;20165;-80
2021/05/16 08:35:22;;;;;;;11.10;2.60;;;16.50;99.90;;;;;;4995331;28;20181;-77
2021/05/16 08:37:48;;;;;;;11.77;2.42;;;16.20;99.90;;;;;;4992790;28;20189;-78
2021/05/16 08:40:15;;;;;;;10.15;2.40;;;16.20;99.90;;;;;;4993024;28;20161;-77
2021/05/16 08:42:42;;;;;;;9.27;2.20;;;16.10;99.90;;;;;;4992529;28;20201;-81
2021/05/16 08:45:10;;;;;;;13.73;2.22;;;16.00;99.90;;;;;;4992869;28;20168;-82
2021/05/16 08:47:36;;;;;;;9.65;2.00;;;16.20;99.90;;;;;;4991297;28;20255;-82
2021/05/16 08:50:04;;;;;;;14.93;1.70;;;16.30;99.90;;;;;;4992698;28;20622;-81
2021/05/16 08:52:29;;;;;;;7.22;2.55;;;16.20;99.90;;;;;;4992401;28;20540;-81
2021/05/16 08:54:55;;;;;;;9.38;2.00;;;16.40;99.90;;;;;;4992647;28;20192;-81
2021/05/16 08:57:21;;;;;;;13.18;2.67;;;16.30;99.90;;;;;;4992471;28;20204;-81
2021/05/16 09:00:05;;;;;;;5.50;2.70;;;16.20;99.90;;;;;;4992556;28;20637;-80
2021/05/16 09:02:31;;;;;;;14.15;2.58;;;15.90;99.90;;;;;;4992664;28;20240;-82
2021/05/16 09:04:56;;;;;;;9.75;1.85;;;15.80;99.90;;;;;;4992239;28;20192;-80
2021/05/16 09:07:31;;;;;;;10.85;2.50;;;15.90;99.90;;;;;;4992807;28;20340;-81
2021/05/16 09:09:57;;;;;;;14.48;2.65;;;16.00;99.90;;;;;;4992562;28;20173;-79
2021/05/16 09:12:24;;;;;;;6.72;1.80;;;16.10;99.90;;;;;;4992233;28;20165;-80
2021/05/16 09:14:51;;;;;;;8.65;2.40;;;16.30;99.90;;;;;;4992016;28;20169;-82
2021/05/16 09:17:33;;;;;;;9.27;2.03;;;16.20;99.90;;;;;;5009296;28;20673;-82
2021/05/16 09:20:03;;;;;;;10.90;2.38;;;16.70;99.90;;;;;;4996083;28;20169;-80
2021/05/16 09:22:46;;;;;;;10.65;1.88;;;16.90;99.90;;;;;;5011046;28;20228;-80
2021/05/16 09:25:24;;;;;;;9.00;1.95;;;17.30;99.90;;;;;;4996220;28;20230;-81
2021/05/16 09:27:52;;;;;;;9.00;1.70;;;17.40;99.90;;;;;;4991736;28;20193;-81
2021/05/16 09:30:18;;;;;;;10.38;2.08;;;17.40;99.90;;;;;;4994313;28;20231;-81
2021/05/16 09:32:47;;;;;;;5.95;1.73;;;17.30;99.90;;;;;;4995480;28;20621;-83
2021/05/16 09:35:13;;;;;;;11.15;1.80;;;17.40;99.90;;;;;;4995871;28;20648;-83
2021/05/16 09:37:58;;;;;;;8.32;1.80;;;17.40;99.90;;;;;;4994324;28;20243;-85
2021/05/16 09:40:25;;;;;;;4.78;1.55;;;17.70;99.90;;;;;;4975922;28;20185;-82
2021/05/16 09:43:11;;;;;;;11.65;1.58;;;17.90;99.90;;;;;;4997935;28;20292;-84
2021/05/16 09:46:02;;;;;;;4.43;1.48;;;18.20;99.90;;;;;;4996098;28;20165;-81
2021/05/16 09:48:30;;;;;;;3.97;1.30;;;18.30;99.90;;;;;;4985743;28;20240;-82
2021/05/16 09:51:21;;;;;;;9.43;1.02;;;18.30;99.90;;;;;;4976347;28;20634;-83
2021/05/16 09:53:51;;;;;;;3.47;0.98;;;18.60;99.90;;;;;;4976243;28;20166;-83
2021/05/16 09:56:29;;;;;;;2.10;1.05;;;18.50;99.90;;;;;;4974553;28;20186;-83
2021/05/16 09:58:57;;;;;;;5.40;1.23;;;18.40;99.90;;;;;;4974446;28;20557;-83
2021/05/16 10:01:25;;;;;;;9.93;1.55;;;18.50;99.90;;;;;;4974881;28;20701;-84
2021/05/16 10:03:51;;;;;;;3.15;1.50;;;18.40;99.90;;;;;;4974897;28;20569;-85
2021/05/16 10:06:19;;;;;;;5.00;1.58;;;18.20;99.90;;;;;;4975122;28;20257;-84
2021/05/16 10:08:48;;;;;;;4.70;1.63;;;18.10;99.90;;;;;;4975008;28;20193;-85
2021/05/16 10:11:20;;;;;;;2.38;1.00;;;18.50;99.90;;;;;;4974953;28;20197;-82
2021/05/16 10:13:57;;;;;;;4.95;1.20;;;18.20;99.90;;;;;;4976363;28;20169;-89
2021/05/16 10:16:23;;;;;;;2.30;1.17;;;18.50;99.90;;;;;;4976096;28;20228;-87
2021/05/16 10:18:51;;;;;;;3.90;1.45;;;18.40;99.90;;;;;;4975312;28;20598;-87
2021/05/16 10:21:21;;;;;;;6.65;1.40;;;18.60;99.90;;;;;;4975026;28;20170;-84
2021/05/16 10:23:47;;;;;;;10.85;1.58;;;18.70;99.90;;;;;;4974535;28;20570;-84
2021/05/16 10:26:21;;;;;;;6.40;1.60;;;19.00;99.90;;;;;;4974728;28;20162;-84
2021/05/16 10:29:24;;;;;;;6.03;2.00;;;19.00;99.90;;;;;;4973356;28;20680;-84
2021/05/16 10:31:52;;;;;;;7.38;2.25;;;18.30;99.90;;;;;;4935166;29;20205;-89
2021/05/16 10:34:30;;;;;;;7.45;2.33;;;17.70;99.90;;;;;;4980311;28;20185;-83
2021/05/16 10:37:01;;;;;;;6.93;2.03;;;16.90;99.90;;;;;;4974717;28;20680;-84
2021/05/16 10:39:41;;;;;;;3.28;1.75;;;16.70;99.90;;;;;;4975527;28;20165;-83
2021/05/16 10:42:22;;;;;;;7.78;2.63;;;16.40;99.90;;;;;;4974712;28;20212;-83
2021/05/16 10:44:56;;;;;;;7.82;2.20;;;17.00;99.90;;;;;;4974537;28;20190;-89
2021/05/16 10:47:41;;;;;;;5.15;2.03;;;17.20;99.90;;;;;;4977505;28;20193;-90
2021/05/16 10:50:10;;;;;;;7.90;1.50;;;17.60;99.90;;;;;;4976964;28;20181;-85
2021/05/16 10:52:35;;;;;;;8.77;1.58;;;17.60;99.90;;;;;;4975731;28;20178;-86
2021/05/16 10:55:03;;;;;;;3.88;1.67;;;17.70;99.90;;;;;;4994292;28;20189;-87
2021/05/16 10:57:36;;;;;;;4.60;1.60;;;17.90;99.90;;;;;;4994439;28;20185;-85
2021/05/16 11:00:41;;;;;;;7.38;1.50;;;17.60;99.90;;;;;;4994702;28;20316;-90
2021/05/16 11:03:13;;;;;;;4.35;1.45;;;17.70;99.90;;;;;;4966540;28;20248;-85
2021/05/16 11:05:52;;;;;;;4.78;1.10;;;17.90;99.90;;;;;;4996704;28;20279;-85
2021/05/16 11:08:18;;;;;;;5.35;1.40;;;18.40;99.90;;;;;;4998396;28;20196;-88
2021/05/16 11:10:50;;;;;;;4.75;1.70;;;18.30;99.90;;;;;;4995130;28;20177;-87
2021/05/16 11:13:26;;;;;;;8.13;1.55;;;18.20;99.90;;;;;;4980462;28;20177;-86
2021/05/16 11:16:09;;;;;;;7.78;1.25;;;18.30;99.90;;;;;;4998253;28;20180;-87
2021/05/16 11:18:35;;;;;;;2.03;1.10;;;18.40;99.90;;;;;;5000259;28;20244;-89
2021/05/16 11:21:08;;;;;;;3.35;1.20;;;18.70;99.90;;;;;;5000049;28;20652;-86
2021/05/16 11:23:44;;;;;;;5.07;1.10;;;18.60;99.90;;;;;;5000252;28;20292;-86
2021/05/16 11:26:15;;;;;;;2.78;1.08;;;18.50;99.90;;;;;;5016346;28;20649;-88
2021/05/16 11:29:07;;;;;;;6.10;1.27;;;18.30;99.90;;;;;;5016445;28;20173;-88
2021/05/16 11:31:34;;;;;;;3.67;1.17;;;18.40;99.90;;;;;;5009925;28;20188;-87
2021/05/16 11:34:07;;;;;;;8.27;1.77;;;18.60;99.90;;;;;;5001198;28;20195;-90
2021/05/16 11:36:36;;;;;;;9.20;1.10;;;18.30;99.90;;;;;;5000674;28;20185;-88
2021/05/16 11:39:08;;;;;;;4.25;1.80;;;18.50;99.90;;;;;;5002883;28;20197;-88
2021/05/16 11:41:45;;;;;;;6.95;1.70;;;18.40;99.90;;;;;;5000549;28;20169;-86
2021/05/16 11:44:13;;;;;;;4.55;1.77;;;18.60;99.90;;;;;;4999751;28;20189;-86
2021/05/16 11:46:44;;;;;;;4.57;1.65;;;18.70;99.90;;;;;;4996548;28;20169;-85
2021/05/16 11:49:25;;;;;;;2.72;1.30;;;18.70;99.90;;;;;;4997954;28;20188;-87
2021/05/16 11:51:50;;;;;;;2.38;1.27;;;18.60;99.90;;;;;;4997576;28;20274;-86
2021/05/16 11:54:18;;;;;;;3.53;1.80;;;18.40;99.90;;;;;;4998475;28;20176;-89
2021/05/16 11:56:47;;;;;;;5.45;1.20;;;18.60;99.90;;;;;;4989267;28;20526;-85
2021/05/16 11:59:13;;;;;;;2.75;1.50;;;18.40;99.90;;;;;;4998304;28;20235;-85
2021/05/16 12:01:46;;;;;;;4.35;1.98;;;18.30;99.90;;;;;;4996770;28;20169;-85
2021/05/16 12:04:17;;;;;;;1.58;0.90;;;18.60;99.90;;;;;;4995461;28;20177;-85
2021/05/16 12:06:51;;;;;;;1.08;0.75;;;18.70;99.90;;;;;;4978627;28;20178;-84
2021/05/16 12:09:22;;;;;;;2.47;1.40;;;18.90;99.90;;;;;;4978173;28;20169;-85
2021/05/16 12:11:50;;;;;;;9.85;1.58;;;19.00;99.90;;;;;;4977787;28;20200;-85
2021/05/16 12:14:18;;;;;;;2.08;1.30;;;18.80;99.90;;;;;;4977206;28;20177;-82
2021/05/16 12:17:02;;;;;;;2.67;1.70;;;18.50;99.90;;;;;;4976828;28;20170;-80
2021/05/16 12:19:30;;;;;;;4.15;1.23;;;18.40;99.90;;;;;;4975532;28;20177;-81
2021/05/16 12:21:58;;;;;;;6.05;1.50;;;18.40;99.90;;;;;;4974680;28;20178;-86
2021/05/16 12:24:30;;;;;;;5.40;1.73;;;18.50;99.90;;;;;;4973903;28;20169;-86
2021/05/16 12:26:56;;;;;;;3.30;1.65;;;18.50;99.90;;;;;;4974565;28;20173;-85
2021/05/16 12:29:22;;;;;;;3.28;1.20;;;18.60;99.90;;;;;;4974985;28;20225;-81
2021/05/16 12:31:49;;;;;;;1.55;1.00;;;18.60;99.90;;;;;;4973761;28;20193;-82
2021/05/16 12:34:16;;;;;;;4.70;1.33;;;18.90;99.90;;;;;;4974806;28;20185;-82
2021/05/16 12:36:57;;;;;;;2.13;1.30;;;19.10;99.90;;;;;;4976254;28;20197;-82
2021/05/16 12:39:42;;;;;;;9.52;1.20;;;19.30;99.90;;;;;;4975541;28;20193;-82
2021/05/16 12:42:37;;;;;;;3.70;1.35;;;19.20;99.90;;;;;;4974930;28;20212;-81
2021/05/16 12:45:22;;;;;;;1.45;0.80;;;19.10;99.90;;;;;;4974198;28;20681;-81
2021/05/16 12:47:57;;;;;;;1.08;0.70;;;18.80;99.90;;;;;;5007614;28;20673;-81
2021/05/16 12:50:29;;;;;;;0.63;0.63;;;17.90;99.90;;;;;;5007846;28;20216;-80